sensor_id;sensor_type;location;lat;lon;timestamp;temperature;humidity
66586;SHT30;53444;45.822;16.092;2023-05-07T00:02:25;19.06;73.28
66586;SHT30;53444;45.822;16.092;2023-05-07T00:04:51;18.96;73.59
66586;SHT30;53444;45.822;16.092;2023-05-07T00:07:18;18.96;73.71
66586;SHT30;53444;45.822;16.092;2023-05-07T00:09:44;19.16;73.20
66586;SHT30;53444;45.822;16.092;2023-05-07T00:12:11;19.23;73.10
66586;SHT30;53444;45.822;16.092;2023-05-07T00:14:38;19.18;73.63
66586;SHT30;53444;45.822;16.092;2023-05-07T00:17:04;19.13;73.79
66586;SHT30;53444;45.822;16.092;2023-05-07T00:19:32;19.05;74.18
66586;SHT30;53444;45.822;16.092;2023-05-07T00:21:59;19.02;74.25
66586;SHT30;53444;45.822;16.092;2023-05-07T00:24:26;19.02;74.45
66586;SHT30;53444;45.822;16.092;2023-05-07T00:26:52;18.98;74.65
66586;SHT30;53444;45.822;16.092;2023-05-07T00:29:19;18.99;74.61
66586;SHT30;53444;45.822;16.092;2023-05-07T00:31:46;18.91;74.92
66586;SHT30;53444;45.822;16.092;2023-05-07T00:34:12;18.75;75.21
66586;SHT30;53444;45.822;16.092;2023-05-07T00:36:40;18.55;76.24
66586;SHT30;53444;45.822;16.092;2023-05-07T00:39:07;18.58;76.29
66586;SHT30;53444;45.822;16.092;2023-05-07T00:41:34;18.64;76.35
66586;SHT30;53444;45.822;16.092;2023-05-07T00:44:00;18.68;76.26
66586;SHT30;53444;45.822;16.092;2023-05-07T00:46:28;18.60;76.26
66586;SHT30;53444;45.822;16.092;2023-05-07T00:48:55;18.58;76.57
66586;SHT30;53444;45.822;16.092;2023-05-07T00:51:23;18.58;76.49
66586;SHT30;53444;45.822;16.092;2023-05-07T00:53:51;18.37;77.25
66586;SHT30;53444;45.822;16.092;2023-05-07T00:56:18;18.23;77.92
66586;SHT30;53444;45.822;16.092;2023-05-07T00:58:45;18.13;78.25
66586;SHT30;53444;45.822;16.092;2023-05-07T01:01:12;18.14;78.23
66586;SHT30;53444;45.822;16.092;2023-05-07T01:03:41;18.02;78.77
66586;SHT30;53444;45.822;16.092;2023-05-07T01:06:08;17.99;78.85
66586;SHT30;53444;45.822;16.092;2023-05-07T01:08:38;18.04;78.79
66586;SHT30;53444;45.822;16.092;2023-05-07T01:11:07;17.97;78.86
66586;SHT30;53444;45.822;16.092;2023-05-07T01:13:34;17.94;79.15
66586;SHT30;53444;45.822;16.092;2023-05-07T01:16:02;17.86;79.60
66586;SHT30;53444;45.822;16.092;2023-05-07T01:18:28;17.73;80.20
66586;SHT30;53444;45.822;16.092;2023-05-07T01:20:58;17.62;80.23
66586;SHT30;53444;45.822;16.092;2023-05-07T01:23:27;17.62;80.43
66586;SHT30;53444;45.822;16.092;2023-05-07T01:25:54;17.31;81.32
66586;SHT30;53444;45.822;16.092;2023-05-07T01:28:21;17.35;81.31
66586;SHT30;53444;45.822;16.092;2023-05-07T01:30:50;17.31;81.33
66586;SHT30;53444;45.822;16.092;2023-05-07T01:33:20;17.15;82.02
66586;SHT30;53444;45.822;16.092;2023-05-07T01:35:50;16.92;82.76
66586;SHT30;53444;45.822;16.092;2023-05-07T01:38:18;16.85;82.84
66586;SHT30;53444;45.822;16.092;2023-05-07T01:40:46;16.73;83.19
66586;SHT30;53444;45.822;16.092;2023-05-07T01:43:13;16.70;83.26
66586;SHT30;53444;45.822;16.092;2023-05-07T01:45:41;16.81;82.74
66586;SHT30;53444;45.822;16.092;2023-05-07T01:48:08;16.77;83.03
66586;SHT30;53444;45.822;16.092;2023-05-07T01:50:36;16.67;83.38
66586;SHT30;53444;45.822;16.092;2023-05-07T01:53:03;16.64;83.19
66586;SHT30;53444;45.822;16.092;2023-05-07T01:55:30;16.70;82.95
66586;SHT30;53444;45.822;16.092;2023-05-07T01:57:58;16.63;83.13
66586;SHT30;53444;45.822;16.092;2023-05-07T02:00:25;16.52;83.36
66586;SHT30;53444;45.822;16.092;2023-05-07T02:02:52;16.39;83.73
66586;SHT30;53444;45.822;16.092;2023-05-07T02:05:18;16.34;83.86
66586;SHT30;53444;45.822;16.092;2023-05-07T02:07:45;16.29;83.88
66586;SHT30;53444;45.822;16.092;2023-05-07T02:10:12;16.16;84.21
66586;SHT30;53444;45.822;16.092;2023-05-07T02:12:38;16.25;84.05
66586;SHT30;53444;45.822;16.092;2023-05-07T02:15:07;16.28;83.92
66586;SHT30;53444;45.822;16.092;2023-05-07T02:17:34;16.22;83.96
66586;SHT30;53444;45.822;16.092;2023-05-07T02:20:03;16.20;83.72
66586;SHT30;53444;45.822;16.092;2023-05-07T02:22:30;16.18;83.84
66586;SHT30;53444;45.822;16.092;2023-05-07T02:24:56;16.16;84.11
66586;SHT30;53444;45.822;16.092;2023-05-07T02:27:23;16.32;83.47
66586;SHT30;53444;45.822;16.092;2023-05-07T02:29:50;16.37;83.28
66586;SHT30;53444;45.822;16.092;2023-05-07T02:32:18;16.20;83.45
66586;SHT30;53444;45.822;16.092;2023-05-07T02:34:45;16.25;83.67
66586;SHT30;53444;45.822;16.092;2023-05-07T02:37:11;16.36;83.19
66586;SHT30;53444;45.822;16.092;2023-05-07T02:39:38;16.29;83.18
66586;SHT30;53444;45.822;16.092;2023-05-07T02:42:05;16.19;83.39
66586;SHT30;53444;45.822;16.092;2023-05-07T02:44:34;15.92;83.99
66586;SHT30;53444;45.822;16.092;2023-05-07T02:47:00;15.99;83.73
66586;SHT30;53444;45.822;16.092;2023-05-07T02:49:28;15.96;83.66
66586;SHT30;53444;45.822;16.092;2023-05-07T02:51:55;16.05;83.37
66586;SHT30;53444;45.822;16.092;2023-05-07T02:54:22;16.10;83.07
66586;SHT30;53444;45.822;16.092;2023-05-07T02:56:48;16.15;83.00
66586;SHT30;53444;45.822;16.092;2023-05-07T02:59:15;16.08;83.54
66586;SHT30;53444;45.822;16.092;2023-05-07T03:01:42;16.12;83.62
66586;SHT30;53444;45.822;16.092;2023-05-07T03:04:09;15.88;84.63
66586;SHT30;53444;45.822;16.092;2023-05-07T03:06:37;15.96;84.44
66586;SHT30;53444;45.822;16.092;2023-05-07T03:09:04;15.94;84.57
66586;SHT30;53444;45.822;16.092;2023-05-07T03:11:31;15.96;84.43
66586;SHT30;53444;45.822;16.092;2023-05-07T03:13:57;15.98;84.46
66586;SHT30;53444;45.822;16.092;2023-05-07T03:16:24;15.99;84.30
66586;SHT30;53444;45.822;16.092;2023-05-07T03:18:51;15.89;84.60
66586;SHT30;53444;45.822;16.092;2023-05-07T03:21:17;15.95;84.44
66586;SHT30;53444;45.822;16.092;2023-05-07T03:23:45;15.89;84.76
66586;SHT30;53444;45.822;16.092;2023-05-07T03:26:12;15.89;84.70
66586;SHT30;53444;45.822;16.092;2023-05-07T03:28:39;15.88;84.63
66586;SHT30;53444;45.822;16.092;2023-05-07T03:31:05;15.81;84.59
66586;SHT30;53444;45.822;16.092;2023-05-07T03:33:33;15.67;84.72
66586;SHT30;53444;45.822;16.092;2023-05-07T03:36:00;15.75;85.12
66586;SHT30;53444;45.822;16.092;2023-05-07T03:38:27;15.81;84.93
66586;SHT30;53444;45.822;16.092;2023-05-07T03:40:55;15.71;85.43
66586;SHT30;53444;45.822;16.092;2023-05-07T03:43:21;15.64;85.58
66586;SHT30;53444;45.822;16.092;2023-05-07T03:45:48;15.65;85.34
66586;SHT30;53444;45.822;16.092;2023-05-07T03:48:14;15.57;85.59
66586;SHT30;53444;45.822;16.092;2023-05-07T03:50:41;15.61;85.43
66586;SHT30;53444;45.822;16.092;2023-05-07T03:53:08;15.47;86.00
66586;SHT30;53444;45.822;16.092;2023-05-07T03:55:34;15.59;85.56
66586;SHT30;53444;45.822;16.092;2023-05-07T03:58:02;15.69;85.19
66586;SHT30;53444;45.822;16.092;2023-05-07T04:00:29;15.65;85.24
66586;SHT30;53444;45.822;16.092;2023-05-07T04:02:58;15.61;85.37
66586;SHT30;53444;45.822;16.092;2023-05-07T04:05:25;15.54;85.68
66586;SHT30;53444;45.822;16.092;2023-05-07T04:07:52;15.59;85.54
66586;SHT30;53444;45.822;16.092;2023-05-07T04:10:19;15.53;86.10
66586;SHT30;53444;45.822;16.092;2023-05-07T04:12:45;15.57;85.89
66586;SHT30;53444;45.822;16.092;2023-05-07T04:15:14;15.65;85.63
66586;SHT30;53444;45.822;16.092;2023-05-07T04:17:40;15.64;85.68
66586;SHT30;53444;45.822;16.092;2023-05-07T04:20:08;15.65;85.78
66586;SHT30;53444;45.822;16.092;2023-05-07T04:22:35;15.69;85.75
66586;SHT30;53444;45.822;16.092;2023-05-07T04:25:02;15.71;85.74
66586;SHT30;53444;45.822;16.092;2023-05-07T04:27:29;15.65;86.14
66586;SHT30;53444;45.822;16.092;2023-05-07T04:29:56;15.77;86.02
66586;SHT30;53444;45.822;16.092;2023-05-07T04:32:24;15.86;85.89
66586;SHT30;53444;45.822;16.092;2023-05-07T04:34:51;16.04;85.39
66586;SHT30;53444;45.822;16.092;2023-05-07T04:37:17;16.15;85.18
66586;SHT30;53444;45.822;16.092;2023-05-07T04:39:44;16.23;85.27
66586;SHT30;53444;45.822;16.092;2023-05-07T04:42:14;16.34;84.89
66586;SHT30;53444;45.822;16.092;2023-05-07T04:44:41;16.42;84.55
66586;SHT30;53444;45.822;16.092;2023-05-07T04:47:07;16.52;84.19
66586;SHT30;53444;45.822;16.092;2023-05-07T04:49:36;16.60;84.11
66586;SHT30;53444;45.822;16.092;2023-05-07T04:52:03;16.70;83.93
66586;SHT30;53444;45.822;16.092;2023-05-07T04:54:30;16.60;84.05
66586;SHT30;53444;45.822;16.092;2023-05-07T04:56:57;16.61;84.20
66586;SHT30;53444;45.822;16.092;2023-05-07T04:59:23;16.78;83.84
66586;SHT30;53444;45.822;16.092;2023-05-07T05:01:50;17.01;83.17
66586;SHT30;53444;45.822;16.092;2023-05-07T05:04:17;17.01;82.75
66586;SHT30;53444;45.822;16.092;2023-05-07T05:06:45;17.17;82.21
66586;SHT30;53444;45.822;16.092;2023-05-07T05:09:11;17.28;81.97
66586;SHT30;53444;45.822;16.092;2023-05-07T05:11:38;17.41;81.46
66586;SHT30;53444;45.822;16.092;2023-05-07T05:14:05;17.39;81.43
66586;SHT30;53444;45.822;16.092;2023-05-07T05:16:32;17.28;81.78
66586;SHT30;53444;45.822;16.092;2023-05-07T05:18:59;17.42;81.70
66586;SHT30;53444;45.822;16.092;2023-05-07T05:21:25;17.39;81.44
66586;SHT30;53444;45.822;16.092;2023-05-07T05:23:53;17.51;81.12
66586;SHT30;53444;45.822;16.092;2023-05-07T05:26:20;17.35;81.08
66586;SHT30;53444;45.822;16.092;2023-05-07T05:28:47;17.52;80.98
66586;SHT30;53444;45.822;16.092;2023-05-07T05:31:15;17.76;80.44
66586;SHT30;53444;45.822;16.092;2023-05-07T05:33:42;18.02;79.50
66586;SHT30;53444;45.822;16.092;2023-05-07T05:36:09;17.94;79.40
66586;SHT30;53444;45.822;16.092;2023-05-07T05:38:36;18.02;78.96
66586;SHT30;53444;45.822;16.092;2023-05-07T05:41:04;17.69;80.19
66586;SHT30;53444;45.822;16.092;2023-05-07T05:43:30;17.76;80.03
66586;SHT30;53444;45.822;16.092;2023-05-07T05:45:57;17.73;79.48
66586;SHT30;53444;45.822;16.092;2023-05-07T05:48:24;17.78;79.44
66586;SHT30;53444;45.822;16.092;2023-05-07T05:50:51;17.97;79.56
66586;SHT30;53444;45.822;16.092;2023-05-07T05:53:17;18.11;78.39
66586;SHT30;53444;45.822;16.092;2023-05-07T05:55:45;18.29;78.33
66586;SHT30;53444;45.822;16.092;2023-05-07T05:58:13;18.45;77.58
66586;SHT30;53444;45.822;16.092;2023-05-07T06:00:40;18.51;77.53
66586;SHT30;53444;45.822;16.092;2023-05-07T06:03:10;18.62;77.26
66586;SHT30;53444;45.822;16.092;2023-05-07T06:05:36;18.76;76.48
66586;SHT30;53444;45.822;16.092;2023-05-07T06:08:03;18.72;76.47
66586;SHT30;53444;45.822;16.092;2023-05-07T06:10:30;18.62;76.43
66586;SHT30;53444;45.822;16.092;2023-05-07T06:12:57;18.71;76.45
66586;SHT30;53444;45.822;16.092;2023-05-07T06:15:25;18.67;76.63
66586;SHT30;53444;45.822;16.092;2023-05-07T06:17:51;18.85;76.58
66586;SHT30;53444;45.822;16.092;2023-05-07T06:20:18;19.13;76.01
66586;SHT30;53444;45.822;16.092;2023-05-07T06:22:45;19.27;75.56
66586;SHT30;53444;45.822;16.092;2023-05-07T06:25:11;19.39;75.55
66586;SHT30;53444;45.822;16.092;2023-05-07T06:27:38;19.35;75.68
66586;SHT30;53444;45.822;16.092;2023-05-07T06:30:06;19.37;74.88
66586;SHT30;53444;45.822;16.092;2023-05-07T06:32:34;19.43;75.19
66586;SHT30;53444;45.822;16.092;2023-05-07T06:35:01;19.45;74.47
66586;SHT30;53444;45.822;16.092;2023-05-07T06:37:27;19.63;74.48
66586;SHT30;53444;45.822;16.092;2023-05-07T06:39:54;19.70;74.27
66586;SHT30;53444;45.822;16.092;2023-05-07T06:42:21;19.53;75.25
66586;SHT30;53444;45.822;16.092;2023-05-07T06:44:47;19.66;75.87
66586;SHT30;53444;45.822;16.092;2023-05-07T06:47:14;19.93;74.58
66586;SHT30;53444;45.822;16.092;2023-05-07T06:49:42;20.03;74.80
66586;SHT30;53444;45.822;16.092;2023-05-07T06:54:44;20.13;73.08
66586;SHT30;53444;45.822;16.092;2023-05-07T06:57:11;20.17;72.86
66586;SHT30;53444;45.822;16.092;2023-05-07T06:59:38;19.84;73.78
66586;SHT30;53444;45.822;16.092;2023-05-07T07:02:04;19.69;74.46
66586;SHT30;53444;45.822;16.092;2023-05-07T07:04:31;19.63;74.38
66586;SHT30;53444;45.822;16.092;2023-05-07T07:06:59;19.87;73.36
66586;SHT30;53444;45.822;16.092;2023-05-07T07:09:26;20.01;72.88
66586;SHT30;53444;45.822;16.092;2023-05-07T07:11:52;20.22;71.85
66586;SHT30;53444;45.822;16.092;2023-05-07T07:14:19;20.44;71.51
66586;SHT30;53444;45.822;16.092;2023-05-07T07:16:46;20.01;72.08
66586;SHT30;53444;45.822;16.092;2023-05-07T07:19:13;19.90;72.52
66586;SHT30;53444;45.822;16.092;2023-05-07T07:21:40;20.21;72.62
66586;SHT30;53444;45.822;16.092;2023-05-07T07:24:08;20.56;72.08
66586;SHT30;53444;45.822;16.092;2023-05-07T07:26:35;20.80;71.20
66586;SHT30;53444;45.822;16.092;2023-05-07T07:29:01;20.71;70.32
66586;SHT30;53444;45.822;16.092;2023-05-07T07:31:28;20.49;71.15
66586;SHT30;53444;45.822;16.092;2023-05-07T07:33:56;20.32;70.56
66586;SHT30;53444;45.822;16.092;2023-05-07T07:36:22;20.36;71.15
66586;SHT30;53444;45.822;16.092;2023-05-07T07:38:49;20.41;70.09
66586;SHT30;53444;45.822;16.092;2023-05-07T07:41:17;20.58;70.38
66586;SHT30;53444;45.822;16.092;2023-05-07T07:43:43;20.65;70.80
66586;SHT30;53444;45.822;16.092;2023-05-07T07:46:11;20.69;70.45
66586;SHT30;53444;45.822;16.092;2023-05-07T07:48:38;20.62;69.62
66586;SHT30;53444;45.822;16.092;2023-05-07T07:51:05;20.58;69.34
66586;SHT30;53444;45.822;16.092;2023-05-07T07:53:31;20.93;69.62
66586;SHT30;53444;45.822;16.092;2023-05-07T07:55:58;21.16;68.62
66586;SHT30;53444;45.822;16.092;2023-05-07T07:58:27;21.10;68.89
66586;SHT30;53444;45.822;16.092;2023-05-07T08:00:53;21.04;68.71
66586;SHT30;53444;45.822;16.092;2023-05-07T08:03:21;21.14;69.46
66586;SHT30;53444;45.822;16.092;2023-05-07T08:05:47;20.99;68.40
66586;SHT30;53444;45.822;16.092;2023-05-07T08:08:16;21.27;68.08
66586;SHT30;53444;45.822;16.092;2023-05-07T08:10:43;21.68;68.92
66586;SHT30;53444;45.822;16.092;2023-05-07T08:13:09;22.02;66.51
66586;SHT30;53444;45.822;16.092;2023-05-07T08:15:37;22.26;65.24
66586;SHT30;53444;45.822;16.092;2023-05-07T08:18:04;22.18;65.38
66586;SHT30;53444;45.822;16.092;2023-05-07T08:20:31;22.43;65.03
66586;SHT30;53444;45.822;16.092;2023-05-07T08:22:58;22.22;65.56
66586;SHT30;53444;45.822;16.092;2023-05-07T08:25:25;22.32;65.00
66586;SHT30;53444;45.822;16.092;2023-05-07T08:27:51;22.45;65.01
66586;SHT30;53444;45.822;16.092;2023-05-07T08:30:18;22.42;65.58
66586;SHT30;53444;45.822;16.092;2023-05-07T08:32:46;21.84;65.60
66586;SHT30;53444;45.822;16.092;2023-05-07T08:35:13;22.33;64.51
66586;SHT30;53444;45.822;16.092;2023-05-07T08:37:39;22.59;63.47
66586;SHT30;53444;45.822;16.092;2023-05-07T08:40:07;22.69;64.00
66586;SHT30;53444;45.822;16.092;2023-05-07T08:42:35;22.22;64.11
66586;SHT30;53444;45.822;16.092;2023-05-07T08:45:04;22.18;63.96
66586;SHT30;53444;45.822;16.092;2023-05-07T08:47:39;22.55;63.79
66586;SHT30;53444;45.822;16.092;2023-05-07T08:50:08;22.84;64.05
66586;SHT30;53444;45.822;16.092;2023-05-07T08:52:35;23.11;62.95
66586;SHT30;53444;45.822;16.092;2023-05-07T08:55:02;23.31;63.23
66586;SHT30;53444;45.822;16.092;2023-05-07T08:57:29;23.55;61.93
66586;SHT30;53444;45.822;16.092;2023-05-07T08:59:56;23.61;62.28
66586;SHT30;53444;45.822;16.092;2023-05-07T09:02:22;23.81;62.23
66586;SHT30;53444;45.822;16.092;2023-05-07T09:04:49;24.10;60.62
66586;SHT30;53444;45.822;16.092;2023-05-07T09:07:18;23.25;60.89
66586;SHT30;53444;45.822;16.092;2023-05-07T09:09:46;23.44;61.52
66586;SHT30;53444;45.822;16.092;2023-05-07T09:12:12;23.40;61.28
66586;SHT30;53444;45.822;16.092;2023-05-07T09:14:39;23.82;61.23
66586;SHT30;53444;45.822;16.092;2023-05-07T09:17:06;24.30;61.75
66586;SHT30;53444;45.822;16.092;2023-05-07T09:19:33;24.57;59.03
66586;SHT30;53444;45.822;16.092;2023-05-07T09:22:00;24.80;57.73
66586;SHT30;53444;45.822;16.092;2023-05-07T09:24:28;23.76;58.93
66586;SHT30;53444;45.822;16.092;2023-05-07T09:26:59;24.19;58.56
66586;SHT30;53444;45.822;16.092;2023-05-07T09:29:26;24.02;58.18
66586;SHT30;53444;45.822;16.092;2023-05-07T09:31:54;24.39;58.20
66586;SHT30;53444;45.822;16.092;2023-05-07T09:34:20;24.85;57.51
66586;SHT30;53444;45.822;16.092;2023-05-07T09:36:47;24.92;57.00
66586;SHT30;53444;45.822;16.092;2023-05-07T09:39:14;25.02;56.66
66586;SHT30;53444;45.822;16.092;2023-05-07T09:41:49;25.24;56.04
66586;SHT30;53444;45.822;16.092;2023-05-07T09:44:18;25.41;55.38
66586;SHT30;53444;45.822;16.092;2023-05-07T09:46:46;25.16;55.42
66586;SHT30;53444;45.822;16.092;2023-05-07T09:49:20;25.52;56.94
66586;SHT30;53444;45.822;16.092;2023-05-07T09:51:48;25.70;55.48
66586;SHT30;53444;45.822;16.092;2023-05-07T09:54:16;25.74;54.51
66586;SHT30;53444;45.822;16.092;2023-05-07T09:56:45;25.46;55.14
66586;SHT30;53444;45.822;16.092;2023-05-07T09:59:13;25.58;56.09
66586;SHT30;53444;45.822;16.092;2023-05-07T10:01:41;25.67;55.61
66586;SHT30;53444;45.822;16.092;2023-05-07T10:04:09;26.01;55.02
66586;SHT30;53444;45.822;16.092;2023-05-07T10:06:37;26.30;55.95
66586;SHT30;53444;45.822;16.092;2023-05-07T10:09:04;26.49;54.59
66586;SHT30;53444;45.822;16.092;2023-05-07T10:11:32;26.57;52.50
66586;SHT30;53444;45.822;16.092;2023-05-07T10:14:00;26.41;54.40
66586;SHT30;53444;45.822;16.092;2023-05-07T10:16:28;26.82;55.04
66586;SHT30;53444;45.822;16.092;2023-05-07T10:18:56;26.94;51.76
66586;SHT30;53444;45.822;16.092;2023-05-07T10:21:24;27.16;52.31
66586;SHT30;53444;45.822;16.092;2023-05-07T10:23:57;27.23;52.15
66586;SHT30;53444;45.822;16.092;2023-05-07T10:26:25;27.43;52.46
66586;SHT30;53444;45.822;16.092;2023-05-07T10:28:57;27.20;52.99
66586;SHT30;53444;45.822;16.092;2023-05-07T10:31:50;27.47;53.95
66586;SHT30;53444;45.822;16.092;2023-05-07T10:34:23;27.80;53.00
66586;SHT30;53444;45.822;16.092;2023-05-07T10:36:51;27.61;50.62
66586;SHT30;53444;45.822;16.092;2023-05-07T10:39:19;27.67;50.73
66586;SHT30;53444;45.822;16.092;2023-05-07T10:41:47;28.05;51.37
66586;SHT30;53444;45.822;16.092;2023-05-07T10:44:25;27.45;50.44
66586;SHT30;53444;45.822;16.092;2023-05-07T10:47:05;26.20;52.04
66586;SHT30;53444;45.822;16.092;2023-05-07T10:49:34;26.51;52.20
66586;SHT30;53444;45.822;16.092;2023-05-07T10:52:14;26.17;51.13
66586;SHT30;53444;45.822;16.092;2023-05-07T10:54:41;26.81;53.81
66586;SHT30;53444;45.822;16.092;2023-05-07T10:57:32;26.25;50.84
66586;SHT30;53444;45.822;16.092;2023-05-07T10:59:59;26.07;51.99
66586;SHT30;53444;45.822;16.092;2023-05-07T11:03:06;25.82;52.33
66586;SHT30;53444;45.822;16.092;2023-05-07T11:05:33;26.99;51.30
66586;SHT30;53444;45.822;16.092;2023-05-07T11:08:00;26.98;52.37
66586;SHT30;53444;45.822;16.092;2023-05-07T11:10:49;27.67;51.07
66586;SHT30;53444;45.822;16.092;2023-05-07T11:13:17;28.02;50.22
66586;SHT30;53444;45.822;16.092;2023-05-07T11:15:45;28.73;49.29
66586;SHT30;53444;45.822;16.092;2023-05-07T11:18:14;28.84;47.60
66586;SHT30;53444;45.822;16.092;2023-05-07T11:20:54;27.94;49.24
66586;SHT30;53444;45.822;16.092;2023-05-07T11:26:45;28.09;48.96
66586;SHT30;53444;45.822;16.092;2023-05-07T11:29:12;29.07;47.58
66586;SHT30;53444;45.822;16.092;2023-05-07T11:31:40;29.09;47.95
66586;SHT30;53444;45.822;16.092;2023-05-07T11:34:08;28.78;47.37
66586;SHT30;53444;45.822;16.092;2023-05-07T11:36:35;28.44;47.83
66586;SHT30;53444;45.822;16.092;2023-05-07T11:39:02;27.87;49.36
66586;SHT30;53444;45.822;16.092;2023-05-07T11:41:35;28.55;47.76
66586;SHT30;53444;45.822;16.092;2023-05-07T11:44:02;29.11;47.60
66586;SHT30;53444;45.822;16.092;2023-05-07T11:46:30;28.99;46.79
66586;SHT30;53444;45.822;16.092;2023-05-07T11:48:57;29.81;45.66
66586;SHT30;53444;45.822;16.092;2023-05-07T11:51:25;30.53;44.68
66586;SHT30;53444;45.822;16.092;2023-05-07T11:53:55;30.21;45.12
66586;SHT30;53444;45.822;16.092;2023-05-07T11:56:21;30.79;44.70
66586;SHT30;53444;45.822;16.092;2023-05-07T11:58:48;31.00;42.82
66586;SHT30;53444;45.822;16.092;2023-05-07T12:01:17;30.66;43.93
66586;SHT30;53444;45.822;16.092;2023-05-07T12:03:44;31.38;42.29
66586;SHT30;53444;45.822;16.092;2023-05-07T12:06:13;31.82;40.39
66586;SHT30;53444;45.822;16.092;2023-05-07T12:08:42;30.67;40.03
66586;SHT30;53444;45.822;16.092;2023-05-07T12:11:10;31.22;40.90
66586;SHT30;53444;45.822;16.092;2023-05-07T12:13:38;30.88;41.79
66586;SHT30;53444;45.822;16.092;2023-05-07T12:16:06;30.98;42.13
66586;SHT30;53444;45.822;16.092;2023-05-07T12:18:37;31.00;42.05
66586;SHT30;53444;45.822;16.092;2023-05-07T12:21:05;30.42;43.83
66586;SHT30;53444;45.822;16.092;2023-05-07T12:23:33;30.56;43.16
66586;SHT30;53444;45.822;16.092;2023-05-07T12:26:01;30.50;42.21
66586;SHT30;53444;45.822;16.092;2023-05-07T12:28:29;31.01;43.45
66586;SHT30;53444;45.822;16.092;2023-05-07T12:30:56;31.25;42.05
66586;SHT30;53444;45.822;16.092;2023-05-07T12:33:25;31.20;41.12
66586;SHT30;53444;45.822;16.092;2023-05-07T12:35:55;29.20;43.44
66586;SHT30;53444;45.822;16.092;2023-05-07T12:38:22;30.32;43.61
66586;SHT30;53444;45.822;16.092;2023-05-07T12:40:50;30.79;43.03
66586;SHT30;53444;45.822;16.092;2023-05-07T12:43:19;31.54;41.55
66586;SHT30;53444;45.822;16.092;2023-05-07T12:45:47;31.73;40.71
66586;SHT30;53444;45.822;16.092;2023-05-07T12:48:14;31.37;43.33
66586;SHT30;53444;45.822;16.092;2023-05-07T12:50:41;31.59;40.64
66586;SHT30;53444;45.822;16.092;2023-05-07T12:53:09;30.93;41.62
66586;SHT30;53444;45.822;16.092;2023-05-07T12:55:43;31.21;41.45
66586;SHT30;53444;45.822;16.092;2023-05-07T12:58:19;29.93;41.32
66586;SHT30;53444;45.822;16.092;2023-05-07T13:00:48;30.55;40.62
66586;SHT30;53444;45.822;16.092;2023-05-07T13:03:22;31.22;40.85
66586;SHT30;53444;45.822;16.092;2023-05-07T13:05:50;31.38;40.56
66586;SHT30;53444;45.822;16.092;2023-05-07T13:08:25;31.38;41.70
66586;SHT30;53444;45.822;16.092;2023-05-07T13:10:52;31.59;39.77
66586;SHT30;53444;45.822;16.092;2023-05-07T13:13:20;30.80;41.88
66586;SHT30;53444;45.822;16.092;2023-05-07T13:15:47;31.35;40.11
66586;SHT30;53444;45.822;16.092;2023-05-07T13:18:14;31.71;38.91
66586;SHT30;53444;45.822;16.092;2023-05-07T13:20:40;31.52;41.09
66586;SHT30;53444;45.822;16.092;2023-05-07T13:23:07;31.58;39.66
66586;SHT30;53444;45.822;16.092;2023-05-07T13:25:34;32.09;38.49
66586;SHT30;53444;45.822;16.092;2023-05-07T13:28:00;31.25;40.36
66586;SHT30;53444;45.822;16.092;2023-05-07T13:30:29;31.59;40.70
66586;SHT30;53444;45.822;16.092;2023-05-07T13:32:56;31.49;40.74
66586;SHT30;53444;45.822;16.092;2023-05-07T13:35:22;31.62;39.86
66586;SHT30;53444;45.822;16.092;2023-05-07T13:37:49;31.58;40.28
66586;SHT30;53444;45.822;16.092;2023-05-07T13:40:17;31.46;40.58
66586;SHT30;53444;45.822;16.092;2023-05-07T13:42:44;31.59;39.78
66586;SHT30;53444;45.822;16.092;2023-05-07T13:45:10;31.22;38.89
66586;SHT30;53444;45.822;16.092;2023-05-07T13:47:40;31.69;38.73
66586;SHT30;53444;45.822;16.092;2023-05-07T13:50:08;31.45;39.40
66586;SHT30;53444;45.822;16.092;2023-05-07T13:52:35;31.69;39.29
66586;SHT30;53444;45.822;16.092;2023-05-07T13:55:02;31.81;41.00
66586;SHT30;53444;45.822;16.092;2023-05-07T13:57:29;32.27;40.88
66586;SHT30;53444;45.822;16.092;2023-05-07T13:59:56;31.88;41.29
66586;SHT30;53444;45.822;16.092;2023-05-07T14:02:42;31.65;41.98
66586;SHT30;53444;45.822;16.092;2023-05-07T14:05:09;31.88;40.34
66586;SHT30;53444;45.822;16.092;2023-05-07T14:07:36;31.93;40.71
66586;SHT30;53444;45.822;16.092;2023-05-07T14:10:29;31.86;42.09
66586;SHT30;53444;45.822;16.092;2023-05-07T14:12:57;31.57;42.74
66586;SHT30;53444;45.822;16.092;2023-05-07T14:15:23;31.37;42.49
66586;SHT30;53444;45.822;16.092;2023-05-07T14:17:51;31.11;42.95
66586;SHT30;53444;45.822;16.092;2023-05-07T14:20:18;31.20;42.73
66586;SHT30;53444;45.822;16.092;2023-05-07T14:22:44;30.33;43.99
66586;SHT30;53444;45.822;16.092;2023-05-07T14:25:11;30.33;43.50
66586;SHT30;53444;45.822;16.092;2023-05-07T14:27:38;29.58;45.71
66586;SHT30;53444;45.822;16.092;2023-05-07T14:30:06;29.10;45.98
66586;SHT30;53444;45.822;16.092;2023-05-07T14:32:33;28.83;45.85
66586;SHT30;53444;45.822;16.092;2023-05-07T14:35:01;28.84;46.28
66586;SHT30;53444;45.822;16.092;2023-05-07T14:37:54;28.65;47.24
66586;SHT30;53444;45.822;16.092;2023-05-07T14:40:22;27.96;48.54
66586;SHT30;53444;45.822;16.092;2023-05-07T14:42:48;28.25;48.02
66586;SHT30;53444;45.822;16.092;2023-05-07T14:45:15;28.08;48.50
66586;SHT30;53444;45.822;16.092;2023-05-07T14:47:42;28.07;48.43
66586;SHT30;53444;45.822;16.092;2023-05-07T14:50:10;27.98;48.23
66586;SHT30;53444;45.822;16.092;2023-05-07T14:52:37;28.00;49.09
66586;SHT30;53444;45.822;16.092;2023-05-07T14:55:04;27.91;48.23
66586;SHT30;53444;45.822;16.092;2023-05-07T14:57:31;27.86;48.72
66586;SHT30;53444;45.822;16.092;2023-05-07T15:00:00;27.45;49.47
66586;SHT30;53444;45.822;16.092;2023-05-07T15:02:26;27.57;49.61
66586;SHT30;53444;45.822;16.092;2023-05-07T15:04:53;27.49;49.13
66586;SHT30;53444;45.822;16.092;2023-05-07T15:07:21;27.56;49.58
66586;SHT30;53444;45.822;16.092;2023-05-07T15:09:48;27.53;48.66
66586;SHT30;53444;45.822;16.092;2023-05-07T15:12:15;27.35;49.53
66586;SHT30;53444;45.822;16.092;2023-05-07T15:14:42;27.10;50.50
66586;SHT30;53444;45.822;16.092;2023-05-07T15:17:08;27.02;50.64
66586;SHT30;53444;45.822;16.092;2023-05-07T15:19:35;27.12;50.12
66586;SHT30;53444;45.822;16.092;2023-05-07T15:22:02;27.16;50.01
66586;SHT30;53444;45.822;16.092;2023-05-07T15:24:30;27.23;50.30
66586;SHT30;53444;45.822;16.092;2023-05-07T15:26:57;27.10;50.12